Time;durP1;ratioP1;P1;durP2;ratioP2;P2;SDS_P1;SDS_P2;PMS_P1;PMS_P2;Temp;Humidity;BMP_temperature;BMP_pressure;BME280_temperature;BME280_humidity;BME280_pressure;Samples;Min_cycle;Max_cycle;Signal;HPM_P1;HPM_P2
2022/07/09 00:00:43;;;;;;;38.27;36.07;;;13.80;99.90;;;;;;5013450;28;20758;-76
2022/07/09 00:03:09;;;;;;;46.70;44.27;;;13.70;99.90;;;;;;5031335;28;20280;-76
2022/07/09 00:05:35;;;;;;;52.70;49.87;;;13.70;99.90;;;;;;5023219;28;20196;-76
2022/07/09 00:08:00;;;;;;;37.80;35.80;;;13.60;99.90;;;;;;5050058;28;20228;-76
2022/07/09 00:10:26;;;;;;;13.40;12.40;;;13.60;99.90;;;;;;5049992;28;20195;-76
2022/07/09 00:12:52;;;;;;;14.07;12.93;;;13.50;99.90;;;;;;5051037;28;20273;-76
2022/07/09 00:15:18;;;;;;;18.43;17.37;;;13.50;99.90;;;;;;5049427;28;20845;-76
2022/07/09 00:17:44;;;;;;;74.37;70.30;;;13.30;99.90;;;;;;5049940;28;20675;-76
2022/07/09 00:20:10;;;;;;;68.13;64.30;;;13.20;99.90;;;;;;5050978;28;20202;-76
2022/07/09 00:22:36;;;;;;;49.00;46.47;;;13.20;99.90;;;;;;5014979;28;20583;-76
2022/07/09 00:25:03;;;;;;;51.67;48.77;;;13.20;99.90;;;;;;5035970;28;20179;-76
2022/07/09 00:27:28;;;;;;;35.80;33.40;;;13.10;99.90;;;;;;5037301;28;20188;-76
2022/07/09 00:29:54;;;;;;;32.43;30.43;;;13.00;99.90;;;;;;5032770;28;20683;-78
2022/07/09 00:32:20;;;;;;;33.00;31.30;;;13.10;99.90;;;;;;5030994;28;20209;-77
2022/07/09 00:34:46;;;;;;;35.87;34.07;;;13.10;99.90;;;;;;5033826;28;20243;-77
2022/07/09 00:37:12;;;;;;;32.63;30.57;;;13.00;99.90;;;;;;5048914;28;20174;-77
2022/07/09 00:39:38;;;;;;;25.93;24.27;;;13.00;99.90;;;;;;5033173;28;20284;-76
2022/07/09 00:42:09;;;;;;;23.63;22.17;;;13.00;99.90;;;;;;5034736;28;20648;-76
2022/07/09 00:44:36;;;;;;;21.00;19.73;;;12.90;99.90;;;;;;5041842;28;20188;-76
2022/07/09 00:47:03;;;;;;;12.47;11.43;;;12.90;99.90;;;;;;5058778;28;20178;-77
2022/07/09 00:49:30;;;;;;;15.83;14.83;;;12.90;99.90;;;;;;5044521;28;20230;-77
2022/07/09 00:51:57;;;;;;;13.33;12.53;;;12.90;99.90;;;;;;5014902;28;20182;-77
2022/07/09 00:54:24;;;;;;;17.43;16.23;;;12.80;99.90;;;;;;5013722;28;20189;-77
2022/07/09 00:56:53;;;;;;;12.37;11.57;;;12.80;99.90;;;;;;5029382;28;20273;-76
2022/07/09 00:59:21;;;;;;;13.90;12.87;;;12.80;99.90;;;;;;5012701;28;20235;-77
2022/07/09 01:01:48;;;;;;;12.77;11.73;;;12.70;99.90;;;;;;5030429;28;20241;-76
2022/07/09 01:04:14;;;;;;;12.53;11.70;;;12.70;99.90;;;;;;5046995;28;20206;-77
2022/07/09 01:06:40;;;;;;;10.90;10.10;;;12.70;99.90;;;;;;5033149;28;20221;-76
2022/07/09 01:09:07;;;;;;;9.70;8.97;;;12.60;99.90;;;;;;5031985;28;20565;-76
2022/07/09 01:11:33;;;;;;;8.93;8.33;;;12.70;99.90;;;;;;5032400;28;20189;-77
2022/07/09 01:14:00;;;;;;;9.30;8.70;;;12.70;99.90;;;;;;5032581;28;20825;-77
2022/07/09 01:16:34;;;;;;;10.40;9.77;;;12.60;99.90;;;;;;5031062;28;20183;-77
2022/07/09 01:19:00;;;;;;;9.13;8.53;;;12.50;99.90;;;;;;5012029;28;20198;-77
2022/07/09 01:21:25;;;;;;;9.10;8.30;;;12.50;99.90;;;;;;5031151;28;20203;-77
2022/07/09 01:23:51;;;;;;;9.90;8.20;;;12.50;99.90;;;;;;5012864;28;20617;-76
2022/07/09 01:26:19;;;;;;;9.50;8.60;;;12.40;99.90;;;;;;5031464;28;20183;-77
2022/07/09 01:28:46;;;;;;;10.80;10.10;;;12.20;99.90;;;;;;5012623;28;20175;-77
2022/07/09 01:31:12;;;;;;;11.83;11.00;;;12.20;99.90;;;;;;5022196;28;20230;-77
2022/07/09 01:33:38;;;;;;;14.83;13.73;;;12.20;99.90;;;;;;5033149;28;20208;-77
2022/07/09 01:36:05;;;;;;;9.93;9.33;;;12.20;99.90;;;;;;5034725;28;20269;-78
2022/07/09 01:38:31;;;;;;;10.17;9.47;;;12.10;99.90;;;;;;5034172;28;20665;-78
2022/07/09 01:40:57;;;;;;;41.77;39.53;;;12.10;99.90;;;;;;5049097;28;20203;-78
2022/07/09 01:43:23;;;;;;;13.30;12.33;;;12.10;99.90;;;;;;5034052;28;20237;-78
2022/07/09 01:45:48;;;;;;;10.83;9.97;;;12.10;99.90;;;;;;5052432;28;20651;-78
2022/07/09 01:48:15;;;;;;;12.00;11.03;;;12.10;99.90;;;;;;5051596;28;20217;-79
2022/07/09 01:50:41;;;;;;;19.13;17.80;;;12.10;99.90;;;;;;5036158;28;20201;-79
2022/07/09 01:53:07;;;;;;;9.93;8.90;;;12.10;99.90;;;;;;5038401;28;20189;-79
2022/07/09 01:55:33;;;;;;;9.33;8.53;;;12.10;99.90;;;;;;5038474;28;20327;-78
2022/07/09 01:57:59;;;;;;;10.23;9.53;;;12.10;99.90;;;;;;5053849;28;20221;-78
2022/07/09 02:00:27;;;;;;;11.63;10.83;;;12.10;99.90;;;;;;5046965;23;20327;-75
2022/07/09 02:02:54;;;;;;;10.77;9.70;;;12.00;99.90;;;;;;5053869;28;20222;-75
2022/07/09 02:05:20;;;;;;;20.70;19.40;;;11.90;99.90;;;;;;5053897;28;20523;-75
2022/07/09 02:07:46;;;;;;;31.77;30.13;;;11.90;99.90;;;;;;5035192;28;20282;-75
2022/07/09 02:10:12;;;;;;;50.70;47.93;;;11.90;99.90;;;;;;5053139;28;20304;-75
2022/07/09 02:12:38;;;;;;;33.40;31.50;;;11.90;99.90;;;;;;5053354;28;20314;-75
2022/07/09 02:15:05;;;;;;;46.40;43.63;;;11.80;99.90;;;;;;5035657;28;20273;-74
2022/07/09 02:17:32;;;;;;;49.13;46.27;;;11.90;99.90;;;;;;5034841;28;20196;-74
2022/07/09 02:19:58;;;;;;;47.43;44.83;;;11.80;99.90;;;;;;5053264;28;20202;-74
2022/07/09 02:22:23;;;;;;;26.50;25.00;;;11.80;99.90;;;;;;5053254;28;20651;-74
2022/07/09 02:24:52;;;;;;;23.77;22.47;;;11.70;99.90;;;;;;5036885;28;20228;-74
2022/07/09 02:27:19;;;;;;;26.70;25.17;;;11.70;99.90;;;;;;5042010;28;20178;-74
2022/07/09 02:29:45;;;;;;;44.97;42.63;;;11.70;99.90;;;;;;5056420;28;20196;-74
2022/07/09 02:32:11;;;;;;;41.10;38.77;;;11.70;99.90;;;;;;5036638;28;20733;-74
2022/07/09 02:34:37;;;;;;;37.30;35.03;;;11.70;99.90;;;;;;5051768;28;20180;-74
2022/07/09 02:37:05;;;;;;;31.53;29.30;;;11.70;99.90;;;;;;5051494;28;20240;-74
2022/07/09 02:39:31;;;;;;;35.50;33.70;;;11.60;99.90;;;;;;5034978;28;20176;-75
2022/07/09 02:41:57;;;;;;;48.07;45.60;;;11.60;99.90;;;;;;5052986;28;20210;-74
2022/07/09 02:44:24;;;;;;;47.27;44.13;;;11.50;99.90;;;;;;5052935;28;20225;-74
2022/07/09 02:46:49;;;;;;;49.37;46.47;;;11.50;99.90;;;;;;5052039;28;20210;-75
2022/07/09 02:49:15;;;;;;;35.20;32.93;;;11.50;99.90;;;;;;5052785;28;20867;-75
2022/07/09 02:51:41;;;;;;;35.33;33.33;;;11.50;99.90;;;;;;5052030;28;20748;-75
2022/07/09 02:54:07;;;;;;;32.50;30.60;;;11.50;99.90;;;;;;5052811;28;20228;-75
2022/07/09 02:56:33;;;;;;;41.03;38.80;;;11.50;99.90;;;;;;5052545;28;20186;-75
2022/07/09 02:58:59;;;;;;;65.77;62.30;;;11.50;99.90;;;;;;5051774;28;20178;-74
2022/07/09 03:01:25;;;;;;;50.27;47.73;;;11.50;99.90;;;;;;5034438;28;20705;-74
2022/07/09 03:03:52;;;;;;;51.00;48.27;;;11.50;99.90;;;;;;5034833;28;20209;-74
2022/07/09 03:06:18;;;;;;;68.23;64.80;;;11.50;99.90;;;;;;5034333;28;20190;-76
2022/07/09 03:08:43;;;;;;;70.50;66.83;;;11.50;99.90;;;;;;5033711;28;20194;-74
2022/07/09 03:11:09;;;;;;;78.73;74.73;;;11.50;99.90;;;;;;5052597;28;20678;-75
2022/07/09 03:13:36;;;;;;;55.03;52.07;;;11.40;99.90;;;;;;5052506;28;20185;-74
2022/07/09 03:16:06;;;;;;;50.93;48.30;;;11.40;99.90;;;;;;5034753;28;20185;-74
2022/07/09 03:18:33;;;;;;;42.50;40.23;;;11.30;99.90;;;;;;5051565;28;20178;-75
2022/07/09 03:20:59;;;;;;;58.33;55.03;;;11.30;99.90;;;;;;5051672;28;20201;-74
2022/07/09 03:23:25;;;;;;;45.07;42.47;;;11.30;99.90;;;;;;5052305;28;20206;-75
2022/07/09 03:25:51;;;;;;;49.27;46.47;;;11.30;99.90;;;;;;5052322;28;20182;-75
2022/07/09 03:28:16;;;;;;;81.13;76.97;;;11.30;99.90;;;;;;5033567;28;20193;-74
2022/07/09 03:30:42;;;;;;;34.60;32.77;;;11.30;99.90;;;;;;5052117;28;20190;-74
2022/07/09 03:33:08;;;;;;;42.73;40.63;;;11.30;99.90;;;;;;5051605;28;20182;-74
2022/07/09 03:35:34;;;;;;;42.97;40.73;;;11.20;99.90;;;;;;5033709;28;20175;-74
2022/07/09 03:38:00;;;;;;;42.30;39.87;;;11.30;99.90;;;;;;5051150;28;20213;-74
2022/07/09 03:40:26;;;;;;;34.93;33.13;;;11.30;99.90;;;;;;5052011;28;20202;-75
2022/07/09 03:42:51;;;;;;;38.90;36.80;;;11.30;99.90;;;;;;5050389;28;20206;-74
2022/07/09 03:45:17;;;;;;;38.40;36.33;;;11.30;99.90;;;;;;5051469;28;20185;-74
2022/07/09 03:47:43;;;;;;;54.23;51.47;;;11.20;99.90;;;;;;5050787;28;20842;-74
2022/07/09 03:50:11;;;;;;;70.83;67.13;;;11.30;99.90;;;;;;5051488;28;20233;-74
2022/07/09 03:52:37;;;;;;;125.37;118.27;;;11.30;99.90;;;;;;5051702;28;20269;-74
2022/07/09 03:55:03;;;;;;;125.30;118.53;;;11.40;99.90;;;;;;5034631;28;20202;-74
2022/07/09 03:57:29;;;;;;;121.20;114.83;;;11.40;99.90;;;;;;5054942;28;20187;-75
2022/07/09 03:59:55;;;;;;;123.27;116.63;;;11.40;99.90;;;;;;5054788;28;20297;-75
2022/07/09 04:02:21;;;;;;;118.97;112.37;;;11.50;99.90;;;;;;5054394;28;20210;-75
2022/07/09 04:04:47;;;;;;;132.30;125.37;;;11.50;99.90;;;;;;5050985;28;20666;-75
2022/07/09 04:07:12;;;;;;;141.07;133.83;;;11.60;99.90;;;;;;5049215;28;20554;-75
2022/07/09 04:09:38;;;;;;;129.43;122.63;;;11.60;99.90;;;;;;5050856;28;20181;-75
2022/07/09 04:12:04;;;;;;;79.07;75.00;;;11.70;99.90;;;;;;5050799;28;20193;-75
2022/07/09 04:14:30;;;;;;;154.23;146.30;;;11.70;99.90;;;;;;5051226;28;20189;-74
2022/07/09 04:16:56;;;;;;;114.00;108.13;;;11.80;99.90;;;;;;5049917;28;20201;-75
2022/07/09 04:19:21;;;;;;;138.73;131.20;;;11.80;99.90;;;;;;5050464;28;20185;-75
2022/07/09 04:21:47;;;;;;;135.93;129.00;;;11.90;99.90;;;;;;5050948;28;20213;-75
2022/07/09 04:24:15;;;;;;;16.00;14.90;;;11.90;99.90;;;;;;5051045;28;20181;-75
2022/07/09 04:26:42;;;;;;;14.60;13.40;;;12.00;99.90;;;;;;5050641;28;20184;-74
2022/07/09 04:29:08;;;;;;;10.03;9.07;;;12.00;99.90;;;;;;5050769;28;20586;-75
2022/07/09 04:31:34;;;;;;;10.50;9.90;;;12.00;99.90;;;;;;5049790;28;20243;-75
2022/07/09 04:33:59;;;;;;;9.87;9.03;;;12.00;99.90;;;;;;5050787;28;20183;-74
2022/07/09 04:36:25;;;;;;;9.80;9.00;;;12.00;99.90;;;;;;5049597;28;20234;-75
2022/07/09 04:38:51;;;;;;;8.50;7.90;;;12.10;99.90;;;;;;5049992;28;20703;-74
2022/07/09 04:41:17;;;;;;;25.73;24.40;;;12.30;99.90;;;;;;5033067;28;20229;-75
2022/07/09 04:43:43;;;;;;;46.90;44.57;;;12.30;99.90;;;;;;5050630;28;20310;-74
2022/07/09 04:46:09;;;;;;;58.57;55.57;;;12.50;99.90;;;;;;5050232;28;20193;-75
2022/07/09 04:48:34;;;;;;;27.10;25.20;;;12.50;99.90;;;;;;5049944;28;20177;-74
2022/07/09 04:51:00;;;;;;;15.43;14.33;;;12.50;99.90;;;;;;5050918;28;20677;-75
2022/07/09 04:53:26;;;;;;;12.07;11.03;;;12.60;99.90;;;;;;5050430;28;20572;-74
2022/07/09 04:55:52;;;;;;;17.70;16.60;;;12.60;99.90;;;;;;5033139;28;20181;-74
2022/07/09 04:58:18;;;;;;;34.83;32.93;;;12.70;99.90;;;;;;5031673;28;20273;-74
2022/07/09 05:00:43;;;;;;;39.07;36.87;;;12.80;99.90;;;;;;5050439;28;20249;-74
2022/07/09 05:03:09;;;;;;;80.63;76.40;;;12.90;99.90;;;;;;5050142;28;20216;-75
2022/07/09 05:05:35;;;;;;;122.67;116.33;;;13.10;99.90;;;;;;5032175;28;20224;-75
2022/07/09 05:08:01;;;;;;;27.43;25.87;;;13.20;99.90;;;;;;5049893;28;20209;-74
2022/07/09 05:10:27;;;;;;;7.67;7.07;;;13.50;99.90;;;;;;5049362;28;20202;-75
2022/07/09 05:12:53;;;;;;;24.77;23.37;;;13.80;99.90;;;;;;5049431;28;20561;-75
2022/07/09 05:15:19;;;;;;;17.50;16.37;;;14.10;99.90;;;;;;5049381;28;20202;-74
2022/07/09 05:17:45;;;;;;;22.40;21.07;;;14.60;99.90;;;;;;5048276;28;20178;-74
2022/07/09 05:20:11;;;;;;;51.03;48.47;;;15.00;99.90;;;;;;5049499;28;20209;-74
2022/07/09 05:22:37;;;;;;;82.03;77.83;;;15.50;99.90;;;;;;5050359;28;20565;-75
2022/07/09 05:25:05;;;;;;;21.00;19.63;;;16.00;99.90;;;;;;5051424;28;20190;-75
2022/07/09 05:27:31;;;;;;;24.80;23.07;;;16.60;99.90;;;;;;5036943;28;20182;-74
2022/07/09 05:29:58;;;;;;;49.83;47.33;;;17.20;99.90;;;;;;5032573;28;20289;-74
2022/07/09 05:32:24;;;;;;;30.97;29.43;;;17.70;99.90;;;;;;5037167;28;20293;-74
2022/07/09 05:34:50;;;;;;;8.80;8.20;;;18.30;99.90;;;;;;5054932;28;20221;-74
2022/07/09 05:37:15;;;;;;;7.40;6.83;;;18.80;99.90;;;;;;5052668;28;20197;-75
2022/07/09 05:39:41;;;;;;;6.90;6.50;;;19.20;99.90;;;;;;5035856;28;20184;-74
2022/07/09 05:42:07;;;;;;;6.17;5.77;;;19.30;99.90;;;;;;5053828;28;20202;-74
2022/07/09 05:44:33;;;;;;;9.70;8.90;;;19.60;99.90;;;;;;5053265;28;20706;-74
2022/07/09 05:46:59;;;;;;;10.37;9.53;;;19.70;99.90;;;;;;5052044;28;20178;-74
2022/07/09 05:49:25;;;;;;;16.63;15.73;;;19.90;99.90;;;;;;5052522;28;20265;-75
2022/07/09 05:51:51;;;;;;;16.38;15.38;;;20.00;99.90;;;;;;5053458;28;20289;-74
2022/07/09 05:54:17;;;;;;;20.50;19.27;;;20.30;99.90;;;;;;5052820;28;20187;-74
2022/07/09 05:56:43;;;;;;;24.77;23.23;;;20.60;99.90;;;;;;5053465;28;20190;-75
2022/07/09 05:59:09;;;;;;;14.60;13.73;;;21.00;99.90;;;;;;5053444;28;20785;-74
2022/07/09 06:01:39;;;;;;;12.07;11.25;;;21.30;99.90;;;;;;5052358;28;20222;-73
2022/07/09 06:04:07;;;;;;;7.85;4.90;;;21.50;99.90;;;;;;5051970;28;20193;-73
2022/07/09 06:06:33;;;;;;;5.13;4.60;;;21.90;99.90;;;;;;5053354;28;20174;-73
2022/07/09 06:08:59;;;;;;;6.43;6.00;;;22.10;99.90;;;;;;5051866;28;20239;-73
2022/07/09 06:11:25;;;;;;;5.60;5.18;;;22.30;99.90;;;;;;5053031;28;20190;-73
2022/07/09 06:13:51;;;;;;;5.35;4.93;;;22.50;99.90;;;;;;5052700;28;20731;-73
2022/07/09 06:16:16;;;;;;;5.40;5.05;;;22.70;99.90;;;;;;5052231;28;20186;-73
2022/07/09 06:18:43;;;;;;;8.88;5.18;;;22.40;99.90;;;;;;5052325;28;20190;-73
2022/07/09 06:21:08;;;;;;;4.97;4.40;;;22.20;99.90;;;;;;5053979;28;20190;-73
2022/07/09 06:23:34;;;;;;;4.85;4.55;;;22.00;99.90;;;;;;5052038;28;20267;-73
2022/07/09 06:26:00;;;;;;;5.22;4.72;;;22.20;99.90;;;;;;5052879;28;20187;-73
2022/07/09 06:28:26;;;;;;;5.60;5.20;;;22.40;99.90;;;;;;5052160;28;20174;-73
2022/07/09 06:30:51;;;;;;;6.82;6.18;;;22.70;99.90;;;;;;5051298;28;20208;-73
2022/07/09 06:33:17;;;;;;;13.00;12.30;;;23.10;99.70;;;;;;5053052;28;20555;-74
2022/07/09 06:35:43;;;;;;;12.27;11.15;;;22.80;99.10;;;;;;5052174;28;20190;-74
2022/07/09 06:38:09;;;;;;;19.58;18.20;;;23.00;98.30;;;;;;5051386;28;20190;-76
2022/07/09 06:40:34;;;;;;;20.35;18.95;;;23.50;97.60;;;;;;5051190;28;20198;-74
2022/07/09 06:43:00;;;;;;;18.27;16.95;;;23.90;96.60;;;;;;5052524;28;20246;-73
2022/07/09 06:45:26;;;;;;;7.00;6.47;;;24.20;96.90;;;;;;5051603;28;20255;-73
2022/07/09 06:47:52;;;;;;;6.85;5.95;;;24.70;95.10;;;;;;5033720;28;20247;-73
2022/07/09 06:50:19;;;;;;;5.47;5.07;;;24.40;94.90;;;;;;5052506;28;20194;-73
2022/07/09 06:52:45;;;;;;;5.35;4.38;;;24.60;94.30;;;;;;5034096;28;20182;-73
2022/07/09 06:55:10;;;;;;;4.88;4.53;;;24.80;94.30;;;;;;5053510;28;20232;-74
2022/07/09 06:57:37;;;;;;;8.63;5.40;;;25.20;93.00;;;;;;5053652;28;20197;-73
2022/07/09 07:00:04;;;;;;;8.57;4.95;;;24.90;92.30;;;;;;5052903;28;20206;-72
2022/07/09 07:02:30;;;;;;;5.88;4.80;;;25.00;92.40;;;;;;5054083;28;20591;-73
2022/07/09 07:04:56;;;;;;;5.03;4.53;;;25.50;92.00;;;;;;5054119;28;20174;-74
2022/07/09 07:07:22;;;;;;;7.18;4.70;;;25.80;91.10;;;;;;5051489;28;20183;-75
2022/07/09 07:09:48;;;;;;;5.00;4.60;;;25.60;91.00;;;;;;5052198;28;20171;-76
2022/07/09 07:12:13;;;;;;;4.32;4.03;;;25.40;91.10;;;;;;5051431;28;20186;-75
2022/07/09 07:14:39;;;;;;;4.25;4.00;;;25.60;90.90;;;;;;5050465;28;20178;-74
2022/07/09 07:17:05;;;;;;;4.70;4.30;;;26.10;90.70;;;;;;5035317;28;20833;-74
2022/07/09 07:19:30;;;;;;;9.07;5.32;;;26.40;88.20;;;;;;5052036;28;20179;-75
2022/07/09 07:21:56;;;;;;;5.40;4.93;;;25.90;89.30;;;;;;5051711;28;20209;-76
2022/07/09 07:24:22;;;;;;;6.50;4.07;;;25.40;90.00;;;;;;5052629;28;20221;-75
2022/07/09 07:26:48;;;;;;;6.90;6.20;;;24.60;90.30;;;;;;5051227;28;20174;-76
2022/07/09 07:29:14;;;;;;;7.20;6.78;;;23.90;91.30;;;;;;5034473;28;20248;-76
2022/07/09 07:31:40;;;;;;;10.82;9.60;;;23.40;92.90;;;;;;5052226;28;20194;-76
2022/07/09 07:34:05;;;;;;;29.92;27.88;;;23.00;94.20;;;;;;5034513;28;20550;-76
2022/07/09 07:36:31;;;;;;;35.58;33.80;;;23.30;94.40;;;;;;5034271;28;20566;-76
2022/07/09 07:38:57;;;;;;;11.77;11.07;;;24.10;94.20;;;;;;5051509;28;20186;-76
2022/07/09 07:41:23;;;;;;;5.90;5.30;;;25.10;92.70;;;;;;5052103;28;20210;-76
2022/07/09 07:43:48;;;;;;;5.25;4.75;;;25.80;90.70;;;;;;5034078;28;20252;-76
2022/07/09 07:46:14;;;;;;;6.63;5.95;;;25.40;89.70;;;;;;5052047;28;20175;-76
2022/07/09 07:48:41;;;;;;;6.63;6.22;;;25.10;90.50;;;;;;5051163;28;20175;-75
2022/07/09 07:51:08;;;;;;;6.40;5.63;;;24.60;90.70;;;;;;5052717;28;20233;-75
2022/07/09 07:53:35;;;;;;;6.22;3.90;;;23.90;91.20;;;;;;5052730;28;20208;-75
2022/07/09 07:56:04;;;;;;;13.70;13.00;;;23.40;92.00;;;;;;5034598;28;20616;-76
2022/07/09 07:58:31;;;;;;;23.15;21.58;;;23.40;93.30;;;;;;5050986;28;20185;-75
2022/07/09 08:00:57;;;;;;;14.18;13.48;;;23.80;92.90;;;;;;5079566;23;20702;-77
2022/07/09 08:03:23;;;;;;;6.82;6.15;;;24.40;92.20;;;;;;5071616;28;20296;-76
2022/07/09 08:05:48;;;;;;;4.72;4.32;;;24.90;91.10;;;;;;5091833;28;20665;-77
2022/07/09 08:08:14;;;;;;;5.72;5.22;;;25.20;90.20;;;;;;5091017;28;20604;-77
2022/07/09 08:10:40;;;;;;;5.97;4.97;;;25.70;89.50;;;;;;5083924;28;20198;-77
2022/07/09 08:13:06;;;;;;;5.47;4.97;;;26.30;87.60;;;;;;5071501;28;20207;-76
2022/07/09 08:15:32;;;;;;;4.35;4.05;;;26.40;88.00;;;;;;5070643;28;20184;-77
2022/07/09 08:17:57;;;;;;;5.53;5.00;;;26.90;86.20;;;;;;5073098;28;20169;-77
2022/07/09 08:20:23;;;;;;;4.85;4.25;;;27.10;85.30;;;;;;5071786;28;20686;-77
2022/07/09 08:22:49;;;;;;;7.75;7.13;;;27.10;84.60;;;;;;5071358;28;20235;-79
2022/07/09 08:25:15;;;;;;;5.93;5.63;;;27.40;81.90;;;;;;5056177;28;20178;-76
2022/07/09 08:27:41;;;;;;;6.30;5.35;;;27.50;80.10;;;;;;5033579;28;20194;-76
2022/07/09 08:30:07;;;;;;;6.38;5.97;;;27.00;81.30;;;;;;5031045;28;20202;-76
2022/07/09 08:32:38;;;;;;;6.80;6.30;;;26.40;82.10;;;;;;5048908;28;20192;-76
2022/07/09 08:35:04;;;;;;;6.90;6.47;;;26.60;83.90;;;;;;5051750;28;20186;-75
2022/07/09 08:37:30;;;;;;;5.88;5.30;;;26.80;83.70;;;;;;5071087;28;20606;-76
2022/07/09 08:39:56;;;;;;;6.43;6.13;;;27.10;83.50;;;;;;5071298;28;20185;-76
2022/07/09 08:42:22;;;;;;;6.25;5.75;;;27.60;81.60;;;;;;5068570;28;20231;-76
2022/07/09 08:44:48;;;;;;;4.82;3.75;;;27.50;81.40;;;;;;5060124;28;20550;-76
2022/07/09 08:47:15;;;;;;;8.95;4.00;;;27.70;80.20;;;;;;5050049;28;20590;-76
2022/07/09 08:49:43;;;;;;;5.40;4.85;;;27.90;79.80;;;;;;5042290;28;20187;-75
2022/07/09 08:52:10;;;;;;;5.00;4.60;;;27.80;79.50;;;;;;5029913;28;20202;-80
2022/07/09 08:54:40;;;;;;;5.05;4.75;;;27.80;78.40;;;;;;5046964;28;20201;-80
2022/07/09 08:57:06;;;;;;;5.25;4.90;;;27.90;78.70;;;;;;5054738;28;20632;-82
2022/07/09 08:59:33;;;;;;;5.20;4.72;;;28.00;78.10;;;;;;5042458;28;20208;-83
2022/07/09 09:02:12;;;;;;;4.95;4.43;;;27.70;77.40;;;;;;5059283;28;20218;-82
2022/07/09 09:04:41;;;;;;;5.95;4.20;;;28.00;78.10;;;;;;5049042;28;20564;-76
2022/07/09 09:07:17;;;;;;;4.15;3.22;;;28.60;78.30;;;;;;5049145;28;20191;-78
2022/07/09 09:09:44;;;;;;;4.90;3.20;;;29.00;73.70;;;;;;5058513;28;20646;-75
2022/07/09 09:12:10;;;;;;;5.85;3.20;;;28.90;72.50;;;;;;5061574;28;20314;-75
2022/07/09 09:14:36;;;;;;;3.35;3.15;;;29.00;72.20;;;;;;5077990;28;20295;-75
2022/07/09 09:17:09;;;;;;;3.40;3.15;;;28.80;73.70;;;;;;5075520;28;20546;-75
2022/07/09 09:19:35;;;;;;;3.75;3.40;;;29.00;72.80;;;;;;5056722;28;20192;-75
2022/07/09 09:22:03;;;;;;;3.20;3.00;;;29.30;73.90;;;;;;5073298;28;20209;-74
2022/07/09 09:24:29;;;;;;;3.92;3.72;;;29.60;71.60;;;;;;5067407;28;20200;-73
2022/07/09 09:26:58;;;;;;;6.20;5.70;;;29.50;72.40;;;;;;5053243;28;20666;-74
2022/07/09 09:29:26;;;;;;;5.38;5.07;;;29.70;69.50;;;;;;5053375;28;20182;-76
2022/07/09 09:31:53;;;;;;;4.60;4.40;;;29.80;67.90;;;;;;5054236;28;20194;-74
2022/07/09 09:34:20;;;;;;;5.30;4.93;;;29.60;69.80;;;;;;5059100;28;20222;-76
2022/07/09 09:36:48;;;;;;;6.07;5.78;;;29.50;71.70;;;;;;5072853;28;20182;-76
2022/07/09 09:39:21;;;;;;;5.05;4.57;;;29.20;69.40;;;;;;5059121;28;20199;-76
2022/07/09 09:42:01;;;;;;;5.05;4.53;;;29.50;72.40;;;;;;5055940;28;20201;-75
2022/07/09 09:44:41;;;;;;;5.78;5.40;;;29.70;70.90;;;;;;5067058;28;20158;-75
2022/07/09 09:47:07;;;;;;;4.80;4.25;;;29.00;67.40;;;;;;5035387;28;20562;-75
2022/07/09 09:49:36;;;;;;;5.13;4.72;;;29.10;68.70;;;;;;5036173;28;20317;-75
2022/07/09 09:52:10;;;;;;;4.47;4.30;;;29.30;68.80;;;;;;5035621;28;20209;-74
2022/07/09 09:54:39;;;;;;;5.35;5.05;;;29.70;70.10;;;;;;5044116;28;20181;-73
2022/07/09 09:57:13;;;;;;;6.97;6.40;;;29.70;68.30;;;;;;5055215;28;20177;-74
2022/07/09 09:59:44;;;;;;;4.50;4.30;;;29.60;70.70;;;;;;5056649;28;20185;-74
2022/07/09 10:02:11;;;;;;;5.13;4.68;;;29.90;66.60;;;;;;5057245;28;20953;-77
2022/07/09 10:04:38;;;;;;;6.22;4.60;;;30.40;68.80;;;;;;5046770;28;20189;-76
2022/07/09 10:07:05;;;;;;;8.85;8.30;;;30.80;67.50;;;;;;5070072;28;20556;-74
2022/07/09 10:09:30;;;;;;;12.70;11.90;;;30.60;66.50;;;;;;5054861;28;20658;-74
2022/07/09 10:11:56;;;;;;;22.98;21.83;;;30.70;64.90;;;;;;5073120;28;20292;-74
2022/07/09 10:14:28;;;;;;;18.90;17.88;;;30.70;65.40;;;;;;5072759;28;20260;-74
2022/07/09 10:16:54;;;;;;;27.95;26.20;;;30.30;65.80;;;;;;5054806;28;20741;-75
2022/07/09 10:19:33;;;;;;;6.00;5.28;;;29.90;66.70;;;;;;5055368;28;20560;-74
2022/07/09 10:22:00;;;;;;;5.75;5.40;;;29.40;69.30;;;;;;5072414;28;20217;-73
2022/07/09 10:24:33;;;;;;;7.70;6.65;;;29.30;68.70;;;;;;5053474;28;20179;-74
2022/07/09 10:27:10;;;;;;;5.18;4.78;;;29.00;71.90;;;;;;5053923;28;20582;-74
2022/07/09 10:29:51;;;;;;;4.63;4.18;;;29.00;69.80;;;;;;5064539;28;20555;-74
2022/07/09 10:32:42;;;;;;;7.60;7.15;;;29.70;72.00;;;;;;5074265;28;20216;-81
2022/07/09 10:35:08;;;;;;;13.98;13.18;;;30.00;65.30;;;;;;5075923;28;20259;-79
2022/07/09 10:37:44;;;;;;;17.27;16.45;;;29.50;65.10;;;;;;5085213;28;20200;-80
2022/07/09 10:40:15;;;;;;;6.13;5.53;;;28.40;66.30;;;;;;5068598;28;20185;-79
2022/07/09 10:42:44;;;;;;;4.20;4.00;;;27.60;69.10;;;;;;5068525;28;20194;-79
2022/07/09 10:45:22;;;;;;;6.13;5.80;;;27.30;70.80;;;;;;5069146;28;20175;-80
2022/07/09 10:47:56;;;;;;;7.53;7.00;;;26.90;71.80;;;;;;5044058;28;20186;-80
2022/07/09 10:50:24;;;;;;;7.57;6.80;;;26.40;72.50;;;;;;5045099;28;20729;-80
2022/07/09 10:52:50;;;;;;;9.23;8.52;;;26.30;73.10;;;;;;5052265;28;20181;-80
2022/07/09 10:55:20;;;;;;;21.42;18.25;;;26.50;73.80;;;;;;5075412;28;20204;-80
2022/07/09 10:57:46;;;;;;;11.68;10.60;;;27.40;71.60;;;;;;5060289;28;20190;-80
2022/07/09 11:00:17;;;;;;;10.75;9.85;;;27.50;69.30;;;;;;5061886;28;20215;-81
2022/07/09 11:02:53;;;;;;;10.15;9.15;;;27.90;70.30;;;;;;5053741;28;20213;-80
2022/07/09 11:05:19;;;;;;;6.43;6.05;;;28.80;65.00;;;;;;5041048;28;20178;-80
2022/07/09 11:07:55;;;;;;;11.25;10.55;;;29.90;60.90;;;;;;5042442;28;20189;-80
2022/07/09 11:10:21;;;;;;;31.10;29.35;;;31.20;61.50;;;;;;5047937;28;20193;-80
2022/07/09 11:12:50;;;;;;;62.78;59.65;;;32.00;58.90;;;;;;5062212;28;20298;-80
2022/07/09 11:15:20;;;;;;;95.95;91.00;;;31.40;57.90;;;;;;5075072;28;20235;-80
2022/07/09 11:17:59;;;;;;;83.53;79.38;;;31.60;58.90;;;;;;5074638;28;20290;-80
2022/07/09 11:20:28;;;;;;;112.93;107.30;;;31.80;59.50;;;;;;5076576;28;20202;-80
2022/07/09 11:22:57;;;;;;;105.07;99.90;;;31.00;59.70;;;;;;5064394;28;20702;-80
2022/07/09 11:25:25;;;;;;;121.38;115.25;;;30.80;60.60;;;;;;5019479;28;20544;-80
2022/07/09 11:27:51;;;;;;;143.68;136.80;;;31.40;59.10;;;;;;5017786;28;20171;-80
2022/07/09 11:30:17;;;;;;;177.07;168.68;;;31.00;55.90;;;;;;5036920;28;20245;-80
2022/07/09 11:32:43;;;;;;;140.02;133.40;;;30.90;56.40;;;;;;5028644;28;20603;-80
2022/07/09 11:35:10;;;;;;;160.23;152.63;;;31.30;58.20;;;;;;5076757;28;20185;-80
2022/07/09 11:37:37;;;;;;;131.80;125.53;;;32.90;51.30;;;;;;5075451;28;20185;-79
2022/07/09 11:40:04;;;;;;;132.80;126.35;;;33.00;52.30;;;;;;5076650;28;20177;-79
2022/07/09 11:42:30;;;;;;;140.25;133.50;;;32.70;51.70;;;;;;5055671;28;20217;-80
2022/07/09 11:44:59;;;;;;;161.13;153.43;;;32.20;53.80;;;;;;5056570;28;20183;-80
2022/07/09 11:47:35;;;;;;;132.82;126.43;;;32.50;51.80;;;;;;5037170;28;20170;-80
2022/07/09 11:50:20;;;;;;;135.75;129.07;;;33.50;52.30;;;;;;5045220;28;20185;-79
2022/07/09 11:52:49;;;;;;;173.65;165.30;;;34.60;51.60;;;;;;5062698;28;20243;-80
2022/07/09 11:55:19;;;;;;;165.23;157.38;;;34.60;50.90;;;;;;5075930;28;20173;-79
2022/07/09 11:57:54;;;;;;;160.38;152.55;;;33.10;52.50;;;;;;5057316;28;20908;-79
2022/07/09 12:00:28;;;;;;;170.98;162.75;;;31.70;54.40;;;;;;5075927;28;20644;-78
2022/07/09 12:02:56;;;;;;;211.05;201.02;;;31.70;55.50;;;;;;5073915;28;20208;-79
2022/07/09 12:05:30;;;;;;;215.23;204.80;;;31.60;56.30;;;;;;5057412;28;20292;-79
2022/07/09 12:08:01;;;;;;;173.82;165.43;;;31.70;55.10;;;;;;5057011;28;20234;-79
2022/07/09 12:10:30;;;;;;;170.25;162.02;;;32.30;54.10;;;;;;5057417;28;20228;-79
2022/07/09 12:12:58;;;;;;;145.25;138.30;;;32.60;52.40;;;;;;5064445;28;20175;-79
2022/07/09 12:15:25;;;;;;;180.77;172.07;;;33.50;50.50;;;;;;5035349;28;20179;-79
2022/07/09 12:17:56;;;;;;;166.90;159.00;;;33.40;49.20;;;;;;5034713;28;20273;-79
2022/07/09 12:20:31;;;;;;;180.60;171.85;;;32.60;51.40;;;;;;5017286;28;20618;-79
2022/07/09 12:22:57;;;;;;;147.55;140.45;;;31.40;51.80;;;;;;5028154;28;20751;-79
2022/07/09 12:25:23;;;;;;;227.85;216.93;;;30.50;54.00;;;;;;5056328;28;20185;-79
2022/07/09 12:27:50;;;;;;;178.80;170.38;;;29.60;54.90;;;;;;5056904;28;20236;-79
2022/07/09 12:30:16;;;;;;;48.90;46.50;;;28.50;58.00;;;;;;5072243;28;20229;-80
2022/07/09 12:32:43;;;;;;;18.25;17.10;;;27.90;60.50;;;;;;5061287;28;20217;-81